Time;durP1;ratioP1;P1;durP2;ratioP2;P2;SDS_P1;SDS_P2;PMS_P1;PMS_P2;Temp;Humidity;BMP_temperature;BMP_pressure;BME280_temperature;BME280_humidity;BME280_pressure;Samples;Min_cycle;Max_cycle;Signal;HPM_P1;HPM_P2
2024/01/07 00:01:56;;;;;;;2.20;1.52;;;1.80;99.90;;;;;;5074256;28;20177;-60
2024/01/07 00:04:22;;;;;;;2.35;1.63;;;1.90;99.90;;;;;;5070490;28;20039;-60
2024/01/07 00:06:47;;;;;;;5.57;1.73;;;1.90;99.90;;;;;;5076007;28;20081;-60
2024/01/07 00:09:13;;;;;;;2.55;1.75;;;1.90;99.90;;;;;;5067486;28;20024;-60
2024/01/07 00:11:40;;;;;;;4.10;2.28;;;1.80;99.90;;;;;;5076532;28;20036;-60
2024/01/07 00:14:06;;;;;;;2.53;1.45;;;1.70;99.90;;;;;;5073176;28;20021;-60
2024/01/07 00:16:32;;;;;;;7.68;1.80;;;1.70;99.90;;;;;;5074630;28;20036;-60
2024/01/07 00:18:58;;;;;;;3.35;1.83;;;1.70;99.90;;;;;;5068513;28;20393;-59
2024/01/07 00:21:24;;;;;;;4.20;2.00;;;1.70;99.90;;;;;;5069091;28;20433;-59
2024/01/07 00:23:50;;;;;;;3.47;1.90;;;1.70;99.90;;;;;;5074431;28;20051;-60
2024/01/07 00:26:16;;;;;;;4.18;1.95;;;1.70;99.90;;;;;;5074552;28;20484;-60
2024/01/07 00:28:41;;;;;;;5.00;1.73;;;1.60;99.90;;;;;;5073546;28;20043;-60
2024/01/07 00:31:08;;;;;;;4.45;2.03;;;1.60;99.90;;;;;;5074433;28;20091;-60
2024/01/07 00:33:37;;;;;;;6.97;1.98;;;1.60;99.90;;;;;;5075182;28;20115;-60
2024/01/07 00:36:03;;;;;;;4.85;2.08;;;1.70;99.90;;;;;;5073411;28;20028;-60
2024/01/07 00:38:29;;;;;;;6.25;2.20;;;1.60;99.90;;;;;;5073991;28;20054;-60
2024/01/07 00:40:55;;;;;;;5.70;2.78;;;1.70;99.90;;;;;;5073905;28;20024;-60
2024/01/07 00:43:20;;;;;;;5.22;2.08;;;1.70;99.90;;;;;;5072056;28;20102;-60
2024/01/07 00:45:46;;;;;;;4.13;2.33;;;1.80;99.90;;;;;;5072865;28;20028;-60
2024/01/07 00:48:14;;;;;;;5.68;1.98;;;1.80;99.90;;;;;;5069761;28;20059;-60
2024/01/07 00:50:40;;;;;;;3.78;1.90;;;1.70;99.90;;;;;;5072615;28;20495;-60
2024/01/07 00:53:06;;;;;;;3.80;1.92;;;1.80;99.90;;;;;;5069923;28;20094;-60
2024/01/07 00:55:31;;;;;;;6.22;1.90;;;1.80;99.90;;;;;;5071091;28;20081;-60
2024/01/07 00:57:57;;;;;;;3.38;1.80;;;1.80;99.90;;;;;;5073303;28;20125;-60
2024/01/07 01:00:23;;;;;;;4.43;1.80;;;1.90;99.90;;;;;;5072624;28;20110;-60
2024/01/07 01:02:49;;;;;;;5.88;2.50;;;1.80;99.90;;;;;;5074775;28;20115;-60
2024/01/07 01:05:15;;;;;;;4.45;2.08;;;1.70;99.90;;;;;;5073699;28;20036;-60
2024/01/07 01:07:40;;;;;;;8.38;2.22;;;1.60;99.90;;;;;;5073218;28;20063;-60
2024/01/07 01:10:07;;;;;;;8.23;2.53;;;1.60;99.90;;;;;;5075582;28;20060;-60
2024/01/07 01:12:33;;;;;;;4.90;2.53;;;1.70;99.90;;;;;;5076319;28;20028;-60
2024/01/07 01:14:58;;;;;;;8.38;2.78;;;1.60;99.90;;;;;;5072965;28;20040;-60
2024/01/07 01:17:24;;;;;;;6.38;2.50;;;1.60;99.90;;;;;;5076935;28;20049;-60
2024/01/07 01:19:50;;;;;;;8.02;2.65;;;1.50;99.90;;;;;;5077538;28;20028;-60
2024/01/07 01:22:16;;;;;;;5.72;2.00;;;1.60;99.90;;;;;;5075744;28;20071;-60
2024/01/07 01:24:45;;;;;;;4.68;1.90;;;1.70;99.90;;;;;;5076936;28;20052;-60
2024/01/07 01:27:13;;;;;;;6.15;2.25;;;1.70;99.90;;;;;;5076385;28;20036;-60
2024/01/07 01:29:39;;;;;;;3.72;1.60;;;1.70;99.90;;;;;;5079112;28;20024;-60
2024/01/07 01:32:06;;;;;;;7.00;1.90;;;1.60;99.90;;;;;;5074859;28;20378;-60
2024/01/07 01:34:32;;;;;;;3.85;1.88;;;1.60;99.90;;;;;;5075751;28;20025;-61
2024/01/07 01:36:57;;;;;;;5.93;2.17;;;1.70;99.90;;;;;;5076775;28;20040;-60
2024/01/07 01:39:23;;;;;;;3.28;1.70;;;1.60;99.60;;;;;;5075982;28;20560;-60
2024/01/07 01:41:50;;;;;;;4.88;1.77;;;1.60;99.90;;;;;;5079711;28;20020;-59
2024/01/07 01:44:15;;;;;;;5.18;1.90;;;1.60;99.10;;;;;;5076962;28;20044;-60
2024/01/07 01:46:41;;;;;;;4.22;1.90;;;1.50;99.20;;;;;;5077268;28;20048;-60
2024/01/07 01:49:08;;;;;;;3.05;1.60;;;1.40;99.90;;;;;;5075899;28;20530;-60
2024/01/07 01:51:35;;;;;;;3.78;1.45;;;1.40;99.50;;;;;;5079641;28;20403;-60
2024/01/07 01:54:02;;;;;;;2.63;1.38;;;1.40;99.90;;;;;;5076174;28;20372;-60
2024/01/07 01:56:29;;;;;;;2.50;1.50;;;1.50;99.70;;;;;;5075150;28;20082;-60
2024/01/07 01:58:55;;;;;;;4.20;1.73;;;1.40;98.80;;;;;;5075301;28;20078;-60
2024/01/07 02:01:23;;;;;;;3.88;1.27;;;1.40;99.00;;;;;;5067879;28;20058;-60
2024/01/07 02:03:49;;;;;;;1.98;1.20;;;1.30;98.70;;;;;;5078361;28;20530;-60
2024/01/07 02:06:16;;;;;;;2.45;1.23;;;1.30;98.40;;;;;;5075618;28;20060;-60
2024/01/07 02:08:42;;;;;;;3.10;1.33;;;1.30;98.90;;;;;;5079268;28;20064;-60
2024/01/07 02:11:17;;;;;;;3.00;1.50;;;1.30;98.20;;;;;;5074629;28;20040;-60
2024/01/07 02:13:43;;;;;;;5.30;1.67;;;0.90;98.10;;;;;;5074550;28;20039;-60
2024/01/07 02:16:09;;;;;;;2.97;1.35;;;0.80;98.50;;;;;;5074575;28;20094;-60
2024/01/07 02:18:35;;;;;;;2.78;1.40;;;0.90;99.50;;;;;;5075669;28;20063;-61
2024/01/07 02:21:00;;;;;;;3.28;1.75;;;0.80;99.30;;;;;;5076790;28;20032;-60
2024/01/07 02:23:26;;;;;;;2.67;1.00;;;0.70;98.30;;;;;;5077260;28;20039;-60
2024/01/07 02:25:52;;;;;;;2.20;1.52;;;0.70;99.10;;;;;;5074555;28;20063;-61
2024/01/07 02:28:18;;;;;;;4.75;1.17;;;0.60;98.50;;;;;;5075449;28;20458;-60
2024/01/07 02:30:44;;;;;;;2.85;1.40;;;0.50;98.40;;;;;;5078289;28;20107;-60
2024/01/07 02:33:10;;;;;;;3.13;1.40;;;0.50;98.80;;;;;;5073538;28;20059;-61
2024/01/07 02:35:37;;;;;;;3.00;1.77;;;0.60;99.10;;;;;;5076372;28;20101;-60
2024/01/07 02:38:03;;;;;;;2.50;1.40;;;0.60;98.60;;;;;;5075619;28;20037;-61
2024/01/07 02:40:28;;;;;;;4.20;1.63;;;0.50;98.80;;;;;;5072776;28;20087;-61
2024/01/07 02:42:56;;;;;;;2.70;1.33;;;0.60;98.40;;;;;;5077175;28;20039;-60
2024/01/07 02:45:22;;;;;;;4.93;1.38;;;0.60;99.10;;;;;;5073282;28;20032;-60
2024/01/07 02:47:48;;;;;;;1.77;1.05;;;0.60;99.50;;;;;;5078632;28;20032;-60
2024/01/07 02:50:15;;;;;;;1.67;1.15;;;0.50;98.00;;;;;;5073266;28;20119;-61
2024/01/07 02:52:42;;;;;;;1.70;0.93;;;0.30;98.50;;;;;;5074737;28;20187;-61
2024/01/07 02:55:08;;;;;;;11.32;1.40;;;0.40;99.90;;;;;;5074526;28;20032;-60
2024/01/07 02:57:34;;;;;;;2.65;1.35;;;0.30;98.50;;;;;;5074777;28;20496;-61
2024/01/07 03:00:00;;;;;;;1.70;1.20;;;0.30;99.00;;;;;;5077645;28;20027;-60
2024/01/07 03:02:25;;;;;;;2.40;1.10;;;0.40;98.60;;;;;;5076592;28;20035;-61
2024/01/07 03:04:51;;;;;;;2.85;1.42;;;0.40;99.30;;;;;;5075559;28;20036;-60
2024/01/07 03:07:17;;;;;;;1.83;1.10;;;0.40;98.80;;;;;;5075123;28;20123;-60
2024/01/07 03:09:43;;;;;;;1.92;0.98;;;0.40;98.40;;;;;;5077791;28;20136;-60
2024/01/07 03:12:09;;;;;;;2.28;1.20;;;0.40;99.00;;;;;;5074362;28;20063;-60
2024/01/07 03:14:34;;;;;;;2.67;1.30;;;0.40;98.60;;;;;;5076841;28;20020;-60
2024/01/07 03:17:00;;;;;;;1.45;1.30;;;0.20;98.40;;;;;;5074983;28;20063;-60
2024/01/07 03:19:26;;;;;;;3.97;1.23;;;0.20;99.80;;;;;;5074447;28;20071;-60
2024/01/07 03:21:52;;;;;;;2.17;1.20;;;0.10;98.50;;;;;;5077540;28;20472;-60
2024/01/07 03:24:18;;;;;;;3.03;1.10;;;0.00;99.30;;;;;;5075466;28;20471;-60
2024/01/07 03:26:43;;;;;;;2.03;1.10;;;0.00;99.50;;;;;;5077325;28;20024;-60
2024/01/07 03:29:09;;;;;;;3.45;1.10;;;-0.20;98.10;;;;;;5073760;28;20032;-60
2024/01/07 03:31:35;;;;;;;3.08;1.08;;;-0.30;98.60;;;;;;5074994;28;20028;-61
2024/01/07 03:34:00;;;;;;;2.85;0.82;;;-0.30;99.10;;;;;;5076098;28;20125;-60
2024/01/07 03:36:26;;;;;;;2.17;1.00;;;-0.30;99.10;;;;;;5073783;28;20699;-60
2024/01/07 03:38:53;;;;;;;2.47;0.95;;;-0.40;99.30;;;;;;5076488;28;20856;-60
2024/01/07 03:41:20;;;;;;;0.95;0.55;;;-0.50;99.00;;;;;;5075098;28;20024;-60
2024/01/07 03:43:47;;;;;;;1.90;1.05;;;-0.50;99.10;;;;;;5074564;28;20028;-60
2024/01/07 03:46:13;;;;;;;1.58;1.15;;;-0.50;99.30;;;;;;5074722;28;20484;-60
2024/01/07 03:48:40;;;;;;;2.20;1.00;;;-0.40;99.20;;;;;;5077283;28;20036;-61
2024/01/07 03:51:05;;;;;;;2.25;0.82;;;-0.40;98.80;;;;;;5074105;28;20031;-60
2024/01/07 03:53:32;;;;;;;3.88;1.02;;;-0.40;99.30;;;;;;5075866;28;20032;-61
2024/01/07 03:55:57;;;;;;;2.25;0.88;;;-0.30;99.90;;;;;;5074834;28;20044;-60
2024/01/07 03:58:23;;;;;;;2.80;0.95;;;-0.30;99.30;;;;;;5068401;28;20045;-60
2024/01/07 04:00:49;;;;;;;2.35;1.30;;;-0.40;98.70;;;;;;5077112;28;20028;-61
2024/01/07 04:03:14;;;;;;;3.80;1.10;;;-0.40;99.90;;;;;;5073850;28;20024;-60
2024/01/07 04:05:40;;;;;;;1.25;1.13;;;-0.50;99.20;;;;;;5076492;28;20020;-60
2024/01/07 04:08:09;;;;;;;1.70;0.95;;;-0.50;99.90;;;;;;5074136;28;20664;-60
2024/01/07 04:10:35;;;;;;;2.05;0.90;;;-0.60;99.30;;;;;;5071543;28;20036;-60
2024/01/07 04:13:01;;;;;;;2.90;1.55;;;-0.50;99.40;;;;;;5075382;28;20132;-61
2024/01/07 04:15:27;;;;;;;1.05;0.75;;;-0.50;98.90;;;;;;5076431;28;20454;-60
2024/01/07 04:17:52;;;;;;;2.55;0.90;;;-0.50;98.70;;;;;;5073387;28;20097;-60
2024/01/07 04:20:18;;;;;;;1.98;1.10;;;-0.50;99.00;;;;;;5074126;28;20732;-60
2024/01/07 04:22:44;;;;;;;2.63;1.17;;;-0.40;99.70;;;;;;5074011;28;20071;-60
2024/01/07 04:25:10;;;;;;;1.90;1.00;;;-0.40;99.10;;;;;;5074109;28;20082;-61
2024/01/07 04:27:37;;;;;;;2.72;0.90;;;-0.60;99.10;;;;;;5076452;28;20040;-60
2024/01/07 04:30:04;;;;;;;1.17;1.00;;;-0.70;98.30;;;;;;5066956;28;20059;-60
2024/01/07 04:32:30;;;;;;;3.97;1.27;;;-0.70;99.00;;;;;;5075114;28;20040;-60
2024/01/07 04:34:57;;;;;;;1.42;1.10;;;-0.80;98.80;;;;;;5074872;28;20051;-60
2024/01/07 04:37:26;;;;;;;2.45;1.15;;;-0.80;99.00;;;;;;5072985;28;20117;-61
2024/01/07 04:39:51;;;;;;;2.10;1.05;;;-0.80;99.20;;;;;;5075982;28;20131;-60
2024/01/07 04:42:18;;;;;;;1.02;0.88;;;-0.70;99.40;;;;;;5073556;28;20135;-60
2024/01/07 04:44:44;;;;;;;3.20;0.85;;;-0.70;98.70;;;;;;5075873;28;20674;-61
2024/01/07 04:47:34;;;;;;;1.63;0.93;;;-0.70;98.90;;;;;;5073525;28;20028;-60
2024/01/07 04:50:00;;;;;;;3.25;1.13;;;-0.60;99.20;;;;;;5073303;28;20443;-61
2024/01/07 04:52:26;;;;;;;2.53;1.10;;;-0.70;98.90;;;;;;5078253;28;20053;-61
2024/01/07 04:54:54;;;;;;;0.90;0.60;;;-0.60;98.30;;;;;;5078521;28;20036;-60
2024/01/07 04:57:21;;;;;;;1.20;1.00;;;-0.70;98.10;;;;;;5076957;28;20040;-61
2024/01/07 04:59:47;;;;;;;1.73;0.93;;;-0.80;98.20;;;;;;5074977;28;20120;-60
2024/01/07 05:02:13;;;;;;;1.30;0.80;;;-0.80;98.60;;;;;;5076863;28;20544;-60
2024/01/07 05:04:39;;;;;;;1.23;0.70;;;-0.70;99.00;;;;;;5076172;28;20103;-61
2024/01/07 05:07:05;;;;;;;1.55;1.02;;;-0.70;98.60;;;;;;5075356;28;20039;-61
2024/01/07 05:09:32;;;;;;;0.90;0.80;;;-0.80;97.90;;;;;;5072905;28;20024;-60
2024/01/07 05:11:58;;;;;;;1.88;0.77;;;-0.80;98.60;;;;;;5077764;28;20036;-60
2024/01/07 05:14:24;;;;;;;1.80;0.90;;;-0.90;98.20;;;;;;5071757;28;20094;-60
2024/01/07 05:16:50;;;;;;;4.57;1.40;;;-0.80;98.60;;;;;;5079098;28;20043;-60
2024/01/07 05:19:16;;;;;;;1.00;0.90;;;-0.70;99.60;;;;;;5074307;28;20044;-60
2024/01/07 05:21:42;;;;;;;3.08;0.73;;;-0.80;98.70;;;;;;5076424;28;20032;-60
2024/01/07 05:24:07;;;;;;;1.35;1.00;;;-0.80;98.60;;;;;;5077295;28;20058;-61
2024/01/07 05:26:43;;;;;;;3.42;1.30;;;-0.70;98.70;;;;;;5073891;28;20031;-60
2024/01/07 05:29:09;;;;;;;4.15;1.13;;;-0.80;99.00;;;;;;5072390;28;20059;-60
2024/01/07 05:31:35;;;;;;;4.07;1.00;;;-0.70;99.90;;;;;;5078113;28;20412;-61
2024/01/07 05:34:01;;;;;;;2.40;0.77;;;-0.80;98.70;;;;;;5074151;28;20079;-60
2024/01/07 05:36:26;;;;;;;2.15;1.10;;;-0.90;98.90;;;;;;5077026;28;20032;-60
2024/01/07 05:38:52;;;;;;;1.77;0.90;;;-0.80;99.10;;;;;;5078824;28;20113;-60
2024/01/07 05:41:18;;;;;;;2.45;1.15;;;-0.70;99.00;;;;;;5075044;28;20732;-60
2024/01/07 05:43:44;;;;;;;2.55;0.82;;;-0.60;99.10;;;;;;5077862;28;20036;-60
2024/01/07 05:46:11;;;;;;;1.58;1.10;;;-0.60;99.50;;;;;;5075719;28;20047;-60
2024/01/07 05:48:49;;;;;;;1.65;1.00;;;-0.60;99.70;;;;;;5075689;28;20166;-60
2024/01/07 05:51:16;;;;;;;1.48;0.88;;;-0.60;98.70;;;;;;5074378;28;20040;-61
2024/01/07 05:53:43;;;;;;;1.45;0.73;;;-0.60;99.10;;;;;;5075449;28;20032;-61
2024/01/07 05:56:08;;;;;;;1.35;0.90;;;-0.60;98.90;;;;;;5077284;28;20032;-60
2024/01/07 05:58:34;;;;;;;2.65;1.25;;;-0.50;99.00;;;;;;5078013;28;20028;-60
2024/01/07 06:01:00;;;;;;;2.33;1.00;;;-0.60;98.10;;;;;;5065333;28;20025;-60
2024/01/07 06:03:26;;;;;;;1.13;0.98;;;-0.60;98.90;;;;;;5074998;28;20741;-60
2024/01/07 06:05:52;;;;;;;2.08;1.15;;;-0.60;98.80;;;;;;5077118;28;20070;-60
2024/01/07 06:08:18;;;;;;;1.80;1.10;;;-0.60;98.50;;;;;;5074922;28;20040;-60
2024/01/07 06:10:44;;;;;;;2.80;1.00;;;-0.50;97.80;;;;;;5078471;28;20040;-61
2024/01/07 06:13:10;;;;;;;4.05;1.13;;;-0.50;98.40;;;;;;5074396;28;20120;-60
2024/01/07 06:15:36;;;;;;;1.65;0.95;;;-0.50;98.70;;;;;;5075650;28;20107;-62
2024/01/07 06:18:02;;;;;;;3.13;1.30;;;-0.40;99.40;;;;;;5076052;28;20036;-60
2024/01/07 06:20:28;;;;;;;1.75;1.10;;;-0.40;98.20;;;;;;5074522;28;20107;-60
2024/01/07 06:22:53;;;;;;;2.75;1.00;;;-0.40;98.50;;;;;;5077183;28;20669;-60
2024/01/07 06:25:20;;;;;;;1.95;1.00;;;-0.40;98.30;;;;;;5075864;28;20039;-61
2024/01/07 06:27:46;;;;;;;3.20;0.88;;;-0.40;98.80;;;;;;5074931;28;20033;-61
2024/01/07 06:30:12;;;;;;;2.35;1.38;;;-0.40;98.20;;;;;;5075236;28;20821;-60
2024/01/07 06:32:38;;;;;;;2.08;1.20;;;-0.30;98.20;;;;;;5077385;28;20031;-59
2024/01/07 06:35:04;;;;;;;1.13;0.93;;;-0.30;98.10;;;;;;5074359;28;20043;-60
2024/01/07 06:37:30;;;;;;;1.92;1.17;;;-0.40;98.00;;;;;;5074296;28;20033;-60
2024/01/07 06:39:58;;;;;;;2.53;1.25;;;-0.30;98.00;;;;;;5075228;27;20057;-60
2024/01/07 06:42:24;;;;;;;1.65;0.77;;;-0.20;97.90;;;;;;5071956;28;20591;-60
2024/01/07 06:44:50;;;;;;;1.73;1.00;;;-0.10;98.20;;;;;;5076945;28;20024;-60
2024/01/07 06:47:16;;;;;;;1.23;0.80;;;0.00;98.20;;;;;;5074482;28;20040;-60
2024/01/07 06:49:41;;;;;;;2.28;1.35;;;0.10;98.60;;;;;;5076994;28;20032;-60
2024/01/07 06:52:07;;;;;;;1.90;1.05;;;0.20;98.20;;;;;;5074129;28;20590;-60
2024/01/07 06:54:33;;;;;;;3.63;0.77;;;0.30;98.00;;;;;;5074651;28;20104;-63
2024/01/07 06:56:59;;;;;;;3.28;1.10;;;0.40;98.20;;;;;;5075685;28;20641;-60
2024/01/07 06:59:25;;;;;;;4.05;1.08;;;0.40;98.00;;;;;;5073294;28;20036;-60
2024/01/07 07:01:51;;;;;;;3.63;0.93;;;0.50;98.20;;;;;;5076119;28;20047;-60
2024/01/07 07:04:16;;;;;;;1.73;1.17;;;0.50;97.50;;;;;;5074824;28;20048;-60
2024/01/07 07:06:42;;;;;;;1.75;1.10;;;0.50;97.10;;;;;;5074088;28;20116;-60
2024/01/07 07:09:08;;;;;;;2.88;1.52;;;0.60;97.60;;;;;;5074434;28;20046;-60
2024/01/07 07:11:34;;;;;;;1.27;1.10;;;0.60;97.90;;;;;;5077013;28;20028;-60
2024/01/07 07:13:59;;;;;;;4.32;1.38;;;0.70;97.80;;;;;;5072211;28;20031;-60
2024/01/07 07:16:25;;;;;;;3.90;1.23;;;0.60;97.80;;;;;;5074985;28;20051;-60
2024/01/07 07:18:52;;;;;;;1.20;0.85;;;0.60;96.80;;;;;;5073896;28;20044;-60
2024/01/07 07:21:18;;;;;;;1.85;1.40;;;0.50;96.70;;;;;;5074073;28;20514;-60
2024/01/07 07:23:43;;;;;;;3.65;1.02;;;0.50;96.60;;;;;;5076794;28;20028;-60
2024/01/07 07:26:09;;;;;;;3.60;1.17;;;0.40;96.30;;;;;;5073597;28;20069;-60
2024/01/07 07:28:35;;;;;;;3.22;1.10;;;0.30;96.40;;;;;;5074852;28;20032;-61
2024/01/07 07:31:00;;;;;;;2.53;1.35;;;0.30;96.90;;;;;;5073877;28;20101;-60
2024/01/07 07:33:26;;;;;;;3.45;1.30;;;0.30;96.30;;;;;;5072209;28;20044;-60
2024/01/07 07:35:52;;;;;;;2.05;0.82;;;0.20;96.30;;;;;;5076060;28;20024;-60
2024/01/07 07:38:18;;;;;;;3.20;1.05;;;0.20;96.20;;;;;;5072804;28;20041;-60
2024/01/07 07:40:45;;;;;;;2.55;1.02;;;0.20;96.80;;;;;;5076123;28;20036;-60
2024/01/07 07:43:10;;;;;;;4.75;1.10;;;0.20;96.50;;;;;;5073429;28;20029;-60
2024/01/07 07:45:36;;;;;;;5.63;1.33;;;0.30;96.60;;;;;;5069751;28;20032;-60
2024/01/07 07:48:02;;;;;;;3.58;1.35;;;0.40;97.10;;;;;;5073278;28;20408;-60
2024/01/07 07:50:27;;;;;;;1.98;1.20;;;0.40;96.90;;;;;;5075389;28;20115;-60
2024/01/07 07:52:53;;;;;;;1.67;1.27;;;0.50;96.60;;;;;;5073480;28;20024;-60
2024/01/07 07:55:19;;;;;;;2.00;1.15;;;0.50;96.50;;;;;;5072965;28;20812;-60
2024/01/07 07:57:46;;;;;;;3.80;1.35;;;0.50;96.30;;;;;;5071689;28;20036;-60
2024/01/07 08:00:12;;;;;;;2.83;1.40;;;0.50;96.50;;;;;;5069919;28;20490;-60
2024/01/07 08:02:39;;;;;;;2.63;1.48;;;0.60;96.40;;;;;;5071702;28;20165;-60
2024/01/07 08:05:06;;;;;;;3.75;1.42;;;0.70;96.60;;;;;;5064818;28;20028;-60
2024/01/07 08:07:32;;;;;;;2.30;1.42;;;0.80;96.30;;;;;;5070829;28;20027;-60
2024/01/07 08:09:57;;;;;;;2.72;1.42;;;0.80;96.20;;;;;;5068923;28;20040;-59
2024/01/07 08:12:23;;;;;;;1.00;0.75;;;0.80;96.90;;;;;;5063528;28;20035;-60
2024/01/07 08:14:49;;;;;;;1.17;1.02;;;0.90;97.00;;;;;;5076816;28;20032;-60
2024/01/07 08:17:15;;;;;;;3.42;1.30;;;0.90;97.20;;;;;;5071357;28;20118;-60
2024/01/07 08:19:41;;;;;;;1.75;1.02;;;1.00;97.70;;;;;;5067349;28;20104;-60
2024/01/07 08:22:07;;;;;;;2.33;1.08;;;1.10;97.10;;;;;;5061597;28;20033;-60
2024/01/07 08:24:32;;;;;;;2.20;1.20;;;1.10;97.30;;;;;;5063521;28;20051;-60
2024/01/07 08:26:58;;;;;;;2.47;1.35;;;1.10;97.50;;;;;;5073262;28;20032;-60
2024/01/07 08:29:25;;;;;;;1.80;1.15;;;1.20;97.20;;;;;;5073121;28;20028;-60
2024/01/07 08:31:51;;;;;;;1.88;1.20;;;1.20;97.70;;;;;;5073299;28;20024;-60
2024/01/07 08:34:16;;;;;;;4.38;1.55;;;1.20;98.00;;;;;;5072044;28;20047;-60
2024/01/07 08:36:42;;;;;;;2.83;1.50;;;1.20;97.70;;;;;;5072582;28;20028;-60
2024/01/07 08:39:08;;;;;;;2.70;1.42;;;1.30;97.80;;;;;;5071774;28;20373;-59
2024/01/07 08:41:34;;;;;;;2.97;1.70;;;1.30;98.00;;;;;;5074841;28;20111;-60
2024/01/07 08:44:00;;;;;;;4.82;1.83;;;1.30;97.80;;;;;;5072077;28;20047;-60
2024/01/07 08:46:26;;;;;;;2.13;1.40;;;1.30;97.60;;;;;;5070605;28;20016;-60
2024/01/07 08:48:51;;;;;;;2.00;1.38;;;1.40;97.90;;;;;;5073421;28;20654;-61
2024/01/07 08:51:17;;;;;;;5.30;1.70;;;1.40;97.90;;;;;;5069564;28;20078;-61
2024/01/07 08:53:43;;;;;;;3.72;1.52;;;1.50;97.90;;;;;;5073190;28;20115;-60
2024/01/07 08:56:09;;;;;;;3.85;1.75;;;1.40;98.00;;;;;;5071451;28;20063;-60
2024/01/07 08:58:35;;;;;;;1.83;1.33;;;1.50;98.00;;;;;;5072878;28;20036;-60
2024/01/07 09:01:00;;;;;;;4.03;1.88;;;1.50;97.60;;;;;;5073510;28;20135;-60
2024/01/07 09:03:26;;;;;;;3.40;1.98;;;1.60;97.30;;;;;;5071821;28;20040;-60
2024/01/07 09:05:52;;;;;;;4.05;1.60;;;1.60;97.30;;;;;;5073511;28;20039;-60
2024/01/07 09:08:18;;;;;;;3.30;1.58;;;1.60;97.40;;;;;;5074570;28;20037;-60
2024/01/07 09:10:44;;;;;;;3.03;1.90;;;1.60;97.40;;;;;;5073174;28;20093;-60
2024/01/07 09:13:09;;;;;;;1.80;1.60;;;1.60;97.20;;;;;;5073831;28;20036;-60
2024/01/07 09:15:35;;;;;;;2.78;1.55;;;1.60;97.40;;;;;;5076062;28;20089;-60
2024/01/07 09:18:01;;;;;;;2.65;1.38;;;1.60;97.30;;;;;;5040228;28;20039;-61
2024/01/07 09:20:28;;;;;;;2.38;1.50;;;1.70;97.40;;;;;;5067183;28;20436;-61
2024/01/07 09:22:53;;;;;;;4.20;1.88;;;1.70;97.20;;;;;;5072075;28;20036;-61
2024/01/07 09:25:19;;;;;;;2.20;1.33;;;1.70;97.00;;;;;;5068944;28;20037;-61
2024/01/07 09:27:45;;;;;;;4.28;1.48;;;1.80;96.90;;;;;;5075134;28;20028;-61
2024/01/07 09:30:14;;;;;;;3.22;1.90;;;1.80;96.80;;;;;;5072155;28;20043;-60
2024/01/07 09:32:41;;;;;;;3.78;1.48;;;1.80;96.70;;;;;;5074724;28;20032;-61
2024/01/07 09:35:07;;;;;;;3.47;1.50;;;1.90;96.40;;;;;;5033174;22;20069;-68
2024/01/07 09:37:33;;;;;;;4.47;1.50;;;1.90;96.20;;;;;;5012874;28;20084;-68
2024/01/07 09:42:36;;;;;;;3.13;1.77;;;1.90;95.90;;;;;;4979611;28;20061;-64
2024/01/07 09:45:06;;;;;;;3.22;1.77;;;2.00;96.60;;;;;;4996785;28;20030;-64
2024/01/07 09:47:32;;;;;;;4.68;2.20;;;2.00;97.10;;;;;;4998947;28;20045;-64
2024/01/07 09:49:58;;;;;;;4.72;2.40;;;2.00;97.20;;;;;;4995827;28;20034;-65
2024/01/07 09:52:26;;;;;;;5.05;2.05;;;2.00;97.60;;;;;;4997527;28;20038;-65
2024/01/07 09:54:57;;;;;;;2.63;1.80;;;2.10;97.70;;;;;;5011783;28;20096;-65
2024/01/07 09:57:22;;;;;;;4.70;2.22;;;2.10;97.90;;;;;;4997715;28;20034;-64
2024/01/07 09:59:49;;;;;;;3.95;2.10;;;2.10;98.10;;;;;;5000401;28;20370;-65
2024/01/07 10:02:16;;;;;;;4.60;2.85;;;2.10;98.10;;;;;;4996321;28;20038;-64
2024/01/07 10:04:41;;;;;;;5.38;2.35;;;2.20;98.40;;;;;;4997716;28;20106;-64
2024/01/07 10:07:07;;;;;;;4.93;2.40;;;2.10;98.40;;;;;;4995278;28;20092;-64
2024/01/07 10:09:34;;;;;;;5.80;2.20;;;2.20;98.30;;;;;;4981142;28;20030;-64
2024/01/07 10:12:00;;;;;;;5.90;2.78;;;2.20;98.60;;;;;;4992006;28;20294;-64
2024/01/07 10:14:26;;;;;;;4.95;2.55;;;2.20;99.00;;;;;;4995554;28;20077;-64
2024/01/07 10:16:52;;;;;;;8.00;2.90;;;2.20;99.00;;;;;;4995347;28;20065;-65
2024/01/07 10:19:21;;;;;;;6.38;2.53;;;2.20;98.80;;;;;;4994248;28;20173;-64
2024/01/07 10:21:58;;;;;;;8.52;2.83;;;2.20;98.50;;;;;;4996090;28;20034;-64
2024/01/07 10:24:24;;;;;;;5.97;2.72;;;2.20;98.90;;;;;;4992117;28;20044;-64
2024/01/07 10:26:50;;;;;;;6.78;2.63;;;2.20;98.80;;;;;;5000830;28;20034;-64
2024/01/07 10:29:15;;;;;;;6.35;2.58;;;2.20;98.90;;;;;;4990599;28;20038;-64
2024/01/07 10:31:42;;;;;;;4.60;2.95;;;2.30;99.10;;;;;;4999808;28;20025;-64
2024/01/07 10:34:09;;;;;;;5.80;2.78;;;2.30;99.00;;;;;;4993594;28;20088;-63
2024/01/07 10:36:37;;;;;;;7.85;2.65;;;2.20;99.10;;;;;;5003396;28;20033;-64
2024/01/07 10:39:03;;;;;;;5.20;2.05;;;2.30;98.80;;;;;;4996391;28;20046;-64
2024/01/07 10:41:31;;;;;;;8.95;2.55;;;2.30;98.90;;;;;;5006828;28;20060;-66
2024/01/07 10:43:57;;;;;;;6.78;2.45;;;2.30;99.00;;;;;;4992817;28;20485;-64
2024/01/07 10:46:26;;;;;;;4.10;2.40;;;2.30;99.00;;;;;;4996366;28;20041;-64
2024/01/07 10:48:59;;;;;;;5.55;2.63;;;2.30;99.30;;;;;;4995074;28;20145;-63
2024/01/07 10:51:28;;;;;;;14.05;3.65;;;2.30;99.20;;;;;;4993354;28;20038;-63
2024/01/07 10:53:56;;;;;;;7.22;3.55;;;2.40;99.20;;;;;;4992001;28;20417;-63
2024/01/07 10:56:30;;;;;;;9.30;4.70;;;2.40;99.10;;;;;;4995674;28;20088;-63
2024/01/07 10:58:57;;;;;;;7.32;4.38;;;2.40;99.10;;;;;;4995730;28;20061;-63
2024/01/07 11:01:23;;;;;;;6.38;3.65;;;2.40;99.50;;;;;;5012887;28;20093;-63
2024/01/07 11:04:05;;;;;;;8.05;4.03;;;2.40;98.90;;;;;;4999661;28;20029;-63
2024/01/07 11:07:03;;;;;;;8.90;3.17;;;2.40;99.00;;;;;;4998199;28;20030;-63
2024/01/07 11:09:47;;;;;;;6.50;4.13;;;2.40;99.50;;;;;;4988580;28;20474;-64
2024/01/07 11:12:13;;;;;;;7.32;4.43;;;2.40;99.20;;;;;;4998818;28;20026;-63
2024/01/07 11:14:52;;;;;;;10.88;5.07;;;2.50;99.90;;;;;;4995528;28;20537;-64
2024/01/07 11:17:37;;;;;;;6.18;3.83;;;2.50;99.90;;;;;;4995011;28;20053;-63
2024/01/07 11:20:21;;;;;;;7.78;4.18;;;2.50;99.90;;;;;;4995194;28;20033;-63
2024/01/07 11:22:47;;;;;;;6.78;4.03;;;2.50;99.90;;;;;;4995805;28;20035;-64
2024/01/07 11:25:32;;;;;;;6.53;3.30;;;2.50;99.90;;;;;;4993677;28;20036;-64
2024/01/07 11:28:00;;;;;;;4.88;3.28;;;2.50;99.90;;;;;;4997606;28;20077;-63
2024/01/07 11:30:26;;;;;;;5.43;3.20;;;2.50;99.90;;;;;;4995720;28;20429;-63
2024/01/07 11:32:59;;;;;;;6.45;3.10;;;2.50;99.90;;;;;;4998376;28;20092;-63
2024/01/07 11:35:53;;;;;;;6.10;2.78;;;2.60;99.90;;;;;;4994816;28;20041;-63
2024/01/07 11:38:19;;;;;;;4.45;2.65;;;2.60;99.90;;;;;;4987376;28;20049;-63
2024/01/07 11:40:48;;;;;;;4.88;3.33;;;2.60;99.90;;;;;;4990582;28;20034;-63
2024/01/07 11:43:14;;;;;;;4.18;3.15;;;2.70;99.90;;;;;;4996354;28;20121;-63
2024/01/07 11:45:40;;;;;;;5.53;2.97;;;2.70;99.90;;;;;;4990581;28;20113;-64
2024/01/07 11:48:06;;;;;;;5.05;3.35;;;2.70;99.90;;;;;;4990714;28;20080;-63
2024/01/07 11:50:31;;;;;;;4.97;2.88;;;2.70;99.90;;;;;;4994675;28;20037;-63
2024/01/07 11:52:57;;;;;;;3.63;2.22;;;2.70;99.90;;;;;;4991437;28;20042;-63
2024/01/07 11:55:25;;;;;;;4.00;2.33;;;2.70;99.90;;;;;;4992253;28;20084;-63
2024/01/07 11:57:51;;;;;;;5.53;2.33;;;2.70;99.90;;;;;;4993255;28;20034;-63
2024/01/07 12:00:18;;;;;;;5.95;2.60;;;2.80;99.90;;;;;;4996256;28;20030;-63
2024/01/07 12:02:45;;;;;;;8.15;2.15;;;2.80;99.90;;;;;;4997342;28;20027;-63
2024/01/07 12:05:12;;;;;;;8.05;2.45;;;2.80;99.90;;;;;;4990511;28;20121;-63
2024/01/07 12:07:38;;;;;;;4.88;1.83;;;2.80;99.90;;;;;;4991283;28;20026;-63
2024/01/07 12:10:11;;;;;;;4.43;2.05;;;2.70;99.90;;;;;;5000047;28;20042;-63
2024/01/07 12:12:39;;;;;;;3.95;1.70;;;2.80;99.90;;;;;;4986629;28;20030;-64
2024/01/07 12:15:07;;;;;;;2.03;1.55;;;2.80;99.90;;;;;;4994897;28;20057;-63
2024/01/07 12:17:33;;;;;;;2.72;1.83;;;2.80;99.90;;;;;;4993600;28;20034;-63
2024/01/07 12:20:04;;;;;;;3.95;2.30;;;2.80;99.90;;;;;;4989572;28;20057;-63
2024/01/07 12:22:30;;;;;;;2.95;1.70;;;2.80;99.90;;;;;;4990910;28;20869;-63
2024/01/07 12:25:06;;;;;;;2.55;1.50;;;2.90;99.90;;;;;;4998852;28;20033;-63
2024/01/07 12:27:33;;;;;;;1.75;1.58;;;2.90;99.90;;;;;;4992153;28;20030;-63
2024/01/07 12:29:59;;;;;;;4.93;1.92;;;2.80;99.90;;;;;;4992142;28;20049;-63
2024/01/07 12:32:30;;;;;;;6.22;2.03;;;2.90;99.90;;;;;;4990842;28;20042;-63
2024/01/07 12:35:02;;;;;;;4.20;1.85;;;2.80;99.90;;;;;;4997110;28;20034;-63
2024/01/07 12:37:28;;;;;;;4.70;2.17;;;2.90;99.90;;;;;;4995381;28;20038;-63
2024/01/07 12:39:54;;;;;;;2.83;1.83;;;2.90;99.90;;;;;;4990613;28;20034;-63
2024/01/07 12:42:21;;;;;;;3.42;1.80;;;2.90;99.90;;;;;;4996907;28;20457;-63
2024/01/07 12:44:50;;;;;;;3.03;1.55;;;2.90;99.90;;;;;;4990593;28;20030;-62
2024/01/07 12:47:16;;;;;;;4.97;1.70;;;2.90;99.90;;;;;;4993260;28;20050;-63
2024/01/07 12:49:42;;;;;;;2.80;1.55;;;2.90;99.90;;;;;;4991867;28;20030;-62
2024/01/07 12:52:09;;;;;;;5.30;2.33;;;2.90;99.90;;;;;;4993419;28;20405;-63
2024/01/07 12:54:35;;;;;;;23.77;10.77;;;2.90;99.90;;;;;;4985938;28;20035;-63
2024/01/07 12:57:00;;;;;;;18.20;8.35;;;2.90;99.90;;;;;;4992396;28;20042;-62